Orange City, IA

6:53 PM CST on March 02, 2015 (GMT -0600)
IADOT Alton (IA10) | Change Station
CLOSE
Current Station
Personal Weather Station
Location: Orange City, IA
Elevation: 1410 ft
Nearby Weather Stations

Elev 1410 ft 43.00 °N, 96.08 °W | Updated 53 minutes ago

Overcast
Overcast
30 °F
Feels Like 19 °F
N
16
Wind Variable Wind from SE
Gusts 19.0 mph

Today
High -- | Low -- °F
--% Chance of Precip.
Yesterday
High -- | Low -- °F
Precip. -- in
6:58 AM 6:14 PM
Waxing Gibbous, 93% visible
Pressure 30.06 in
Visibility 10.0 miles
Clouds Overcast 6000 ft
Windchill 19 °F
Dew Point 20 °F
Humidity 66%
Rainfall -999.00 in
Snow Depth Not available.
UV 0 out of 12
Pollen .90 out of 12
Air Quality Not available.
Flu Activity Not available.
METAR KORC 030035Z AUTO 14008KT 10SM OVC060 M01/M06 A3006 RMK AO2

More Conditions Fewer Conditions

Pressure 30.06 in
Visibility 10.0 miles
Clouds Overcast 6000 ft
Windchill 19 °F
Dew Point 20 °F
Humidity 66%
Rainfall -999.00 in
Snow Depth Not available.
UV 0 out of 12
Pollen .90 out of 12
Air Quality Not available.
Flu Activity Not available.
METAR KORC 030035Z AUTO 14008KT 10SM OVC060 M01/M06 A3006 RMK AO2

More Conditions Fewer Conditions

10-Day Weather Forecast

Almanac

Astronomy

Mar. 02, 2015 Rise Set
Actual Time
Civil Twilight
Nautical Twilight
Astronomical Twilight
Moon
Length of Visible Light
Length of Day
Tomorrow will be .
, % of the Moon is Illuminated

Today's Extremes

State Highs State Lows

Community

WunderPhotos

Upload Photos

1,802,009 photos uploaded!

WunderBlogs® & News

Nearby

Air Quality

  Air Quality AQ Index Pollutant
Not available.

Snow Depth

Station Depth Elevation

Earthquake Activity

City Distance Mag. Time & Date
Minimum magnitude displayed is 2.5.

Coastal Water Temperatures

Place Temperature

Nearby Weather Stations